Minquadale, Delaware
Current Conditions -  °F | °C
As of 10:51 AM on Thursday 18 Dec 2014 (Local Time) from KILG Reporting Station
Broken Clouds Broken Clouds  
Wind Chill: 28°   Ceiling: 3900
Heat Index: 38°   Visibility: 10mi
Dew Point: 21°   Wind: 20mph
Humidity: 51%   Direction: 310°NW
Pressure: 30.12"   Gusts: NA
Location:  39.6483°N, 75.6041°W
Report Text: KILG 181551Z 31017KT 10SM BKN039 03/M06 A3012 RMK AO2 PK WND 30026/1536 SLP199 T00331061
Loading
Personal Weather Stations






























Interactive Weather Map New forecast layout! Learn more

10-Day Weather Forecast

Advertisements
Track Severe Weather on mobile